Time;durP1;ratioP1;P1;durP2;ratioP2;P2;SDS_P1;SDS_P2;PMS_P1;PMS_P2;Temp;Humidity;BMP_temperature;BMP_pressure;BME280_temperature;BME280_humidity;BME280_pressure;Samples;Min_cycle;Max_cycle;Signal;HPM_P1;HPM_P2
2023/12/28 00:01:16;;;;;;;9.57;2.50;;;;;;;-146.27;85.34;32275.66;5064593;28;20052;-73
2023/12/28 00:03:42;;;;;;;6.97;2.03;;;;;;;-146.27;84.03;32116.97;5063374;28;20075;-73
2023/12/28 00:06:07;;;;;;;9.98;2.63;;;;;;;-146.27;84.05;32116.97;5060024;28;20059;-72
2023/12/28 00:08:32;;;;;;;13.40;2.22;;;;;;;-146.27;84.21;32140.75;5063359;28;20502;-72
2023/12/28 00:10:58;;;;;;;8.35;2.15;;;;;;;-146.27;85.27;32297.47;5064748;28;20044;-72
2023/12/28 00:13:24;;;;;;;8.15;2.60;;;;;;;-146.27;84.75;32208.22;5067007;28;20099;-72
2023/12/28 00:15:49;;;;;;;9.32;2.55;;;;;;;-146.27;84.35;32176.47;5065959;28;20055;-73
2023/12/28 00:18:14;;;;;;;12.50;2.65;;;;;;;-146.27;84.43;32134.81;5066551;28;20538;-72
2023/12/28 00:20:40;;;;;;;8.15;3.40;;;;;;;-146.27;85.43;32275.66;5067005;28;20115;-72
2023/12/28 00:23:06;;;;;;;8.55;2.55;;;;;;;-146.27;85.13;32220.09;5057589;28;20028;-72
2023/12/28 00:25:31;;;;;;;8.50;2.70;;;;;;;-146.27;85.12;32239.94;5058896;28;20124;-72
2023/12/28 00:27:57;;;;;;;15.02;2.33;;;;;;;-146.27;85.84;32337.13;5065642;28;20123;-72
2023/12/28 00:30:22;;;;;;;7.95;3.42;;;;;;;-146.27;84.54;32196.31;5063271;28;20036;-72
2023/12/28 00:32:47;;;;;;;5.47;1.90;;;;;;;-146.27;85.19;32327.22;5070515;28;20063;-75
2023/12/28 00:35:13;;;;;;;12.32;2.33;;;;;;;-146.27;86.31;32323.25;5066165;28;20059;-71
2023/12/28 00:37:39;;;;;;;12.27;2.40;;;;;;;-146.27;85.83;32372.84;5060575;28;20074;-70
2023/12/28 00:40:05;;;;;;;14.30;2.45;;;;;;;-146.27;85.87;32327.22;5067140;28;20466;-71
2023/12/28 00:42:30;;;;;;;6.63;2.20;;;;;;;-146.27;85.53;32360.94;5070854;28;20376;-72
2023/12/28 00:44:55;;;;;;;10.05;2.58;;;;;;;-146.27;85.98;32426.41;5071484;28;20024;-70
2023/12/28 00:47:21;;;;;;;11.30;2.35;;;;;;;-146.27;85.88;32347.06;5068639;28;20036;-73
2023/12/28 00:49:46;;;;;;;9.52;2.20;;;;;;;-146.27;85.62;32378.78;5068745;28;20040;-72
2023/12/28 00:52:12;;;;;;;11.30;2.35;;;;;;;-146.27;84.93;32281.59;5071266;28;20149;-72
2023/12/28 00:54:37;;;;;;;9.23;2.15;;;;;;;-146.27;85.20;32418.47;5068927;28;20066;-72
2023/12/28 00:57:04;;;;;;;7.65;1.60;;;;;;;-146.27;84.74;32323.25;5064618;28;20068;-72
2023/12/28 00:59:30;;;;;;;8.50;2.25;;;;;;;-146.27;85.08;32331.19;5068872;28;20097;-72
2023/12/28 01:01:56;;;;;;;9.60;2.28;;;;;;;-146.27;86.11;32426.41;5068791;28;20020;-72
2023/12/28 01:04:24;;;;;;;8.35;1.83;;;;;;;-146.27;84.48;32388.72;5058708;28;20063;-72
2023/12/28 01:06:50;;;;;;;10.68;2.42;;;;;;;-146.27;85.45;32386.72;5067279;28;20055;-72
2023/12/28 01:09:16;;;;;;;4.68;1.83;;;;;;;-146.27;84.62;32341.09;5068810;28;20060;-71
2023/12/28 01:11:41;;;;;;;6.50;2.00;;;;;;;-146.27;83.83;32251.84;5075445;28;20510;-72
2023/12/28 01:14:07;;;;;;;9.88;1.98;;;;;;;-146.27;84.53;32351.03;5072265;28;20024;-72
2023/12/28 01:16:32;;;;;;;6.88;1.88;;;;;;;-146.27;84.76;32398.63;5068376;28;20460;-72
2023/12/28 01:18:57;;;;;;;5.05;1.98;;;;;;;-146.27;84.67;32337.13;5070551;28;20483;-72
2023/12/28 01:21:24;;;;;;;14.18;2.53;;;;;;;-146.27;85.54;32434.34;5062494;28;20417;-72
2023/12/28 01:23:50;;;;;;;10.50;1.88;;;;;;;-146.27;84.23;32366.91;5064242;28;20507;-72
2023/12/28 01:26:16;;;;;;;7.63;2.03;;;;;;;-146.27;84.75;32396.66;5069029;28;20029;-72
2023/12/28 01:28:42;;;;;;;7.57;1.80;;;;;;;-146.27;85.03;32406.56;5056842;28;20025;-74
2023/12/28 01:31:08;;;;;;;10.25;2.17;;;;;;;-146.27;84.96;32384.75;5066434;28;20101;-72
2023/12/28 01:33:33;;;;;;;4.30;1.75;;;;;;;-146.27;84.59;32335.16;5065331;28;20024;-72
2023/12/28 01:35:59;;;;;;;6.60;1.80;;;;;;;-146.27;84.26;32315.31;5064858;28;20371;-72
2023/12/28 01:38:24;;;;;;;12.13;2.35;;;;;;;-146.27;83.66;32239.94;5067984;28;20044;-72
2023/12/28 01:40:50;;;;;;;6.75;2.28;;;;;;;-146.27;84.45;32293.50;5069510;28;20024;-72
2023/12/28 01:43:15;;;;;;;7.53;2.22;;;;;;;-146.27;83.99;32309.38;5066363;28;20097;-73
2023/12/28 01:45:40;;;;;;;4.95;2.47;;;;;;;-146.27;84.20;32299.44;5061365;28;21038;-72
2023/12/28 01:48:06;;;;;;;9.52;2.65;;;;;;;-146.27;84.13;32295.47;5068621;28;20039;-72
2023/12/28 01:50:32;;;;;;;6.18;1.85;;;;;;;-146.27;85.11;32450.22;5063234;28;20036;-72
2023/12/28 01:53:00;;;;;;;5.13;2.10;;;;;;;-146.27;84.97;32424.41;5068919;28;20171;-72
2023/12/28 01:55:27;;;;;;;9.05;2.47;;;;;;;-146.27;83.97;32283.59;5067461;28;20428;-72
2023/12/28 01:57:53;;;;;;;8.35;2.20;;;;;;;-146.27;83.99;32257.78;5062283;28;20393;-72
2023/12/28 02:00:21;;;;;;;5.20;1.73;;;;;;;-146.27;83.09;32249.84;5057197;28;20104;-72
2023/12/28 02:02:47;;;;;;;9.43;2.13;;;;;;;-146.27;84.23;32382.75;5069162;28;20056;-72
2023/12/28 02:05:13;;;;;;;7.10;1.92;;;;;;;-146.27;83.57;32319.28;5069148;28;20059;-72
2023/12/28 02:07:39;;;;;;;5.20;1.52;;;;;;;-146.27;83.80;32309.38;5063483;28;20024;-72
2023/12/28 02:10:05;;;;;;;6.50;1.80;;;;;;;-146.27;84.34;32370.84;5068650;28;20035;-72
2023/12/28 02:12:30;;;;;;;6.85;1.73;;;;;;;-146.27;83.12;32329.19;5074078;28;20655;-73
2023/12/28 02:14:56;;;;;;;9.95;2.03;;;;;;;-146.27;83.39;32341.09;5067677;28;20028;-72
2023/12/28 02:17:55;;;;;;;11.30;3.10;;;;;;;-146.27;82.66;32307.38;5066690;28;20530;-72
2023/12/28 02:20:21;;;;;;;9.55;2.33;;;;;;;-146.27;83.69;32438.31;5063518;28;20029;-72
2023/12/28 02:22:47;;;;;;;9.60;1.95;;;;;;;-146.27;83.15;32315.31;5066106;28;20430;-72
2023/12/28 02:25:12;;;;;;;10.48;1.77;;;;;;;-146.27;83.22;32384.75;5054608;28;20025;-72
2023/12/28 02:27:40;;;;;;;12.95;1.98;;;;;;;-146.27;83.46;32410.53;5064465;28;20377;-72
2023/12/28 02:30:07;;;;;;;6.05;1.33;;;;;;;-146.27;83.93;32434.34;5059765;28;20083;-72
2023/12/28 02:32:42;;;;;;;10.30;1.75;;;;;;;-146.27;83.02;32353.00;5066090;28;20396;-72
2023/12/28 02:35:32;;;;;;;7.15;1.80;;;;;;;-146.27;82.47;32327.22;5069876;28;20033;-73
2023/12/28 02:38:02;;;;;;;6.10;2.10;;;;;;;-146.27;83.28;32372.84;5066645;28;20115;-72
2023/12/28 02:40:27;;;;;;;12.55;2.20;;;;;;;-146.27;83.11;32410.53;5062790;28;20033;-71
2023/12/28 02:42:53;;;;;;;8.30;1.92;;;;;;;-146.27;83.08;32418.47;5062824;28;20534;-72
2023/12/28 02:45:19;;;;;;;9.65;1.85;;;;;;;-146.27;82.68;32378.78;5066867;28;20398;-72
2023/12/28 02:47:45;;;;;;;14.73;2.47;;;;;;;-146.27;81.90;32321.28;5065894;28;20403;-71
2023/12/28 02:50:11;;;;;;;12.60;1.58;;;;;;;-146.27;82.40;32347.06;5067153;28;20025;-72
2023/12/28 02:52:36;;;;;;;11.65;1.92;;;;;;;-146.27;82.82;32358.97;5069906;28;20082;-72
2023/12/28 02:55:01;;;;;;;9.23;2.25;;;;;;;-146.27;83.09;32462.09;5070735;28;20111;-72
2023/12/28 02:57:27;;;;;;;11.48;2.10;;;;;;;-146.27;83.51;32462.09;5078822;28;20535;-72
2023/12/28 02:59:52;;;;;;;7.53;2.45;;;;;;;-146.27;83.44;32462.09;5059039;28;20024;-72
2023/12/28 03:02:17;;;;;;;8.73;1.77;;;;;;;-146.27;83.43;32434.34;5059832;28;20029;-71
2023/12/28 03:04:43;;;;;;;7.03;1.55;;;;;;;-146.27;83.08;32390.69;5065777;28;20116;-72
2023/12/28 03:07:08;;;;;;;6.40;1.70;;;;;;;-146.27;83.11;32458.13;5067872;28;20059;-70
2023/12/28 03:09:34;;;;;;;9.55;2.67;;;;;;;-146.27;82.98;32392.69;5058855;28;20039;-72
2023/12/28 03:12:00;;;;;;;16.75;1.98;;;;;;;-146.27;82.89;32398.63;5066223;28;20200;-72
2023/12/28 03:14:26;;;;;;;9.10;2.28;;;;;;;-146.27;83.45;32557.31;5069015;28;20082;-72
2023/12/28 03:16:51;;;;;;;10.55;3.33;;;;;;;-146.27;82.83;32430.38;5070580;28;20036;-72
2023/12/28 03:19:17;;;;;;;12.55;2.20;;;;;;;-146.27;83.41;32487.91;5062091;28;20082;-72
2023/12/28 03:21:43;;;;;;;10.43;1.58;;;;;;;-146.27;82.82;32422.44;5064282;28;20024;-72
2023/12/28 03:24:08;;;;;;;3.97;1.67;;;;;;;-146.27;82.86;32458.13;5065653;28;20024;-72
2023/12/28 03:26:38;;;;;;;8.60;1.85;;;;;;;-146.27;83.15;32507.72;5066668;28;20499;-72
2023/12/28 03:29:05;;;;;;;8.07;2.30;;;;;;;-146.27;81.83;32384.75;5067216;28;20020;-71
2023/12/28 03:31:31;;;;;;;9.80;1.38;;;;;;;-146.27;82.16;32426.41;5065420;28;20552;-70
2023/12/28 03:33:56;;;;;;;8.93;1.60;;;;;;;-146.27;82.46;32436.31;5066572;28;20525;-71
2023/12/28 03:36:23;;;;;;;9.45;1.98;;;;;;;-146.27;81.60;32410.53;5063950;28;20037;-72
2023/12/28 03:38:48;;;;;;;10.77;1.90;;;;;;;-146.27;82.35;32464.09;5066011;28;20024;-72
2023/12/28 03:41:20;;;;;;;15.07;2.22;;;;;;;-146.27;82.02;32426.41;5060118;28;20412;-72
2023/12/28 03:43:46;;;;;;;15.20;1.90;;;;;;;-146.27;80.97;32351.03;5065464;28;20042;-71
2023/12/28 03:46:12;;;;;;;9.20;1.55;;;;;;;-146.27;81.33;32378.78;5057768;28;20032;-72
2023/12/28 03:48:37;;;;;;;12.45;3.00;;;;;;;-146.27;81.56;32426.41;5066416;28;20024;-72
2023/12/28 03:51:06;;;;;;;15.20;2.25;;;;;;;-146.27;81.25;32452.19;5057576;28;20084;-72
2023/12/28 03:53:32;;;;;;;19.27;2.42;;;;;;;-146.27;81.51;32408.56;5066192;28;20033;-72
2023/12/28 03:56:00;;;;;;;10.45;2.00;;;;;;;-146.27;81.16;32376.81;5068075;28;20102;-72
2023/12/28 03:58:26;;;;;;;8.48;1.50;;;;;;;-146.27;81.13;32410.53;5066815;28;20098;-71
2023/12/28 04:00:52;;;;;;;11.07;2.47;;;;;;;-146.27;80.72;32355.00;5065192;28;20468;-72
2023/12/28 04:03:17;;;;;;;11.85;1.83;;;;;;;-146.27;80.67;32406.56;5061895;28;20040;-72
2023/12/28 04:05:43;;;;;;;9.60;1.65;;;;;;;-146.27;80.75;32410.53;5066421;28;20111;-72
2023/12/28 04:08:08;;;;;;;8.30;1.40;;;;;;;-146.27;80.21;32353.00;5072753;28;20070;-72
2023/12/28 04:10:34;;;;;;;11.55;2.25;;;;;;;-146.27;79.66;32303.41;5070874;28;20027;-71
2023/12/28 04:13:00;;;;;;;5.22;1.20;;;;;;;-146.27;80.02;32356.97;5070238;28;20032;-72
2023/12/28 04:15:28;;;;;;;24.58;2.65;;;;;;;-146.27;80.27;32343.09;5070667;28;20024;-72
2023/12/28 04:17:54;;;;;;;4.57;1.42;;;;;;;-146.27;80.39;32370.84;5065259;28;20510;-72
2023/12/28 04:20:19;;;;;;;13.05;2.80;;;;;;;-146.27;80.11;32386.72;5072185;28;20056;-71
2023/12/28 04:22:45;;;;;;;11.13;1.67;;;;;;;-146.27;79.74;32416.47;5063118;28;20086;-72
2023/12/28 04:25:10;;;;;;;9.60;2.10;;;;;;;-146.27;79.47;32325.25;5080498;28;20109;-71
2023/12/28 04:27:37;;;;;;;17.25;1.85;;;;;;;-146.27;79.02;32309.38;5064845;28;20017;-72
2023/12/28 04:30:05;;;;;;;15.75;1.58;;;;;;;-146.27;79.21;32325.25;5071581;28;20038;-70
2023/12/28 04:32:30;;;;;;;9.30;2.00;;;;;;;-146.27;79.05;32351.03;5071891;28;20021;-72
2023/12/28 04:34:56;;;;;;;7.05;1.50;;;;;;;-146.27;77.78;32160.59;5066907;28;20039;-72
2023/12/28 04:37:21;;;;;;;13.30;1.80;;;;;;;-146.27;78.49;32331.19;5066909;28;20056;-71
2023/12/28 04:39:47;;;;;;;9.10;1.70;;;;;;;-146.27;78.84;32358.97;5071195;28;20400;-72
2023/12/28 04:42:12;;;;;;;14.05;2.08;;;;;;;-146.27;78.93;32323.25;5068725;28;20038;-71
2023/12/28 04:44:38;;;;;;;15.30;2.20;;;;;;;-146.27;77.96;32239.94;5066656;28;20024;-72
2023/12/28 04:47:04;;;;;;;14.23;1.88;;;;;;;-146.27;78.78;32374.81;5068649;28;20514;-71
2023/12/28 04:49:30;;;;;;;10.23;1.67;;;;;;;-146.27;77.72;32228.03;5070824;28;20028;-71
2023/12/28 04:51:56;;;;;;;11.80;1.77;;;;;;;-146.27;78.96;32430.38;5059644;28;20079;-72
2023/12/28 04:54:22;;;;;;;15.10;1.90;;;;;;;-146.27;78.46;32339.13;5065798;28;20048;-72
2023/12/28 04:56:48;;;;;;;12.65;2.17;;;;;;;-146.27;77.71;32261.75;5068551;28;20071;-71
2023/12/28 04:59:13;;;;;;;16.88;2.28;;;;;;;-146.27;77.05;32184.41;5065582;28;20107;-72
2023/12/28 05:01:44;;;;;;;18.88;2.35;;;;;;;-146.27;79.08;32390.69;5066325;28;20432;-72
2023/12/28 05:04:10;;;;;;;12.45;2.30;;;;;;;-146.27;78.26;32267.72;5069952;28;20036;-71
2023/12/28 05:06:36;;;;;;;13.45;2.20;;;;;;;-146.27;77.32;32194.31;5067178;28;20491;-72
2023/12/28 05:09:02;;;;;;;20.30;2.35;;;;;;;-146.27;78.53;32388.72;5068808;28;20483;-71
2023/12/28 05:11:27;;;;;;;9.93;2.03;;;;;;;-146.27;78.07;32321.28;5070427;28;20033;-72
2023/12/28 05:13:53;;;;;;;6.80;1.45;;;;;;;-146.27;76.93;32160.59;5079608;28;20028;-71
2023/12/28 05:16:19;;;;;;;15.38;2.25;;;;;;;-146.27;77.61;32273.66;5072796;28;20028;-71
2023/12/28 05:18:44;;;;;;;12.00;2.03;;;;;;;-146.27;77.98;32339.13;5060980;28;20465;-71
2023/12/28 05:21:09;;;;;;;12.27;1.85;;;;;;;-146.27;76.78;32192.34;5065872;28;20017;-70
2023/12/28 05:23:35;;;;;;;15.38;2.25;;;;;;;-146.27;77.55;32263.75;5066674;28;20530;-71
2023/12/28 05:26:00;;;;;;;13.65;2.55;;;;;;;-146.27;76.72;32168.53;5070684;28;20385;-71
2023/12/28 05:28:25;;;;;;;13.88;1.70;;;;;;;-146.27;77.43;32287.53;5058971;28;20405;-71
2023/12/28 05:30:51;;;;;;;19.30;2.55;;;;;;;-146.27;77.52;32295.47;5063583;28;20074;-72
2023/12/28 05:33:16;;;;;;;17.52;2.40;;;;;;;-146.27;77.40;32228.03;5068637;28;20115;-72
2023/12/28 05:35:41;;;;;;;21.63;2.63;;;;;;;-146.27;76.58;32134.81;5071573;28;20020;-72
2023/12/28 05:38:07;;;;;;;20.90;3.45;;;;;;;-146.27;76.38;32200.28;5064374;28;20040;-72
2023/12/28 05:40:32;;;;;;;25.88;2.50;;;;;;;-146.27;77.19;32259.78;5060738;28;20472;-71
2023/12/28 05:42:57;;;;;;;20.17;2.55;;;;;;;-146.27;77.90;32335.16;5065689;28;20376;-71
2023/12/28 05:45:23;;;;;;;12.80;3.67;;;;;;;-146.27;76.83;32200.28;5072622;28;20483;-72
2023/12/28 05:47:48;;;;;;;12.18;3.67;;;;;;;-146.27;76.28;32120.94;5066343;28;20115;-71
2023/12/28 05:50:13;;;;;;;14.75;2.10;;;;;;;-146.27;76.46;32267.72;5065672;28;20032;-71
2023/12/28 05:52:39;;;;;;;23.27;2.55;;;;;;;-146.27;76.14;32200.28;5069056;28;20111;-72
2023/12/28 05:55:05;;;;;;;15.30;2.10;;;;;;;-146.27;76.33;32212.16;5065451;28;20386;-70
2023/12/28 05:57:31;;;;;;;12.13;2.30;;;;;;;-146.27;76.21;32196.31;5059502;28;20119;-72
2023/12/28 05:59:59;;;;;;;15.27;2.40;;;;;;;-146.27;75.88;32184.41;5070432;28;20380;-72
2023/12/28 06:02:24;;;;;;;17.15;2.47;;;;;;;-146.27;76.07;32208.22;5065914;28;20445;-72
2023/12/28 06:04:50;;;;;;;16.90;2.38;;;;;;;-146.27;76.18;32234.00;5064695;28;20052;-72
2023/12/28 06:07:15;;;;;;;21.13;3.40;;;;;;;-146.27;75.89;32255.81;5068277;28;20028;-73
2023/12/28 06:09:40;;;;;;;15.05;2.30;;;;;;;-146.27;76.55;32263.75;5064673;28;20111;-72
2023/12/28 06:12:06;;;;;;;27.20;2.60;;;;;;;-146.27;76.66;32247.88;5062820;28;20057;-72
2023/12/28 06:14:31;;;;;;;15.73;2.50;;;;;;;-146.27;75.49;32168.53;5068029;28;20058;-72
2023/12/28 06:16:57;;;;;;;16.10;3.33;;;;;;;-146.27;76.88;32271.69;5066986;28;20032;-72
2023/12/28 06:19:22;;;;;;;21.45;2.20;;;;;;;-146.27;76.10;32200.28;5076373;28;20023;-72
2023/12/28 06:21:48;;;;;;;31.20;3.42;;;;;;;-146.27;75.97;32172.50;5068741;28;20028;-73
2023/12/28 06:24:15;;;;;;;16.23;2.35;;;;;;;-146.27;76.27;32192.34;5065655;28;20024;-72
2023/12/28 06:26:44;;;;;;;21.95;2.80;;;;;;;-146.27;75.20;32017.78;5062710;28;20016;-72
2023/12/28 06:29:10;;;;;;;14.55;2.80;;;;;;;-146.27;75.26;32136.78;5063633;28;20028;-71
2023/12/28 06:31:36;;;;;;;21.02;3.28;;;;;;;-146.27;76.32;32245.91;5068801;28;20031;-72
2023/12/28 06:34:05;;;;;;;20.95;2.17;;;;;;;-146.27;76.58;32347.06;5067500;28;20036;-72
2023/12/28 06:36:31;;;;;;;20.02;2.92;;;;;;;-146.27;76.25;32279.63;5070614;28;20064;-72
2023/12/28 06:38:57;;;;;;;19.73;2.97;;;;;;;-146.27;76.36;32267.72;5060922;28;20078;-72
2023/12/28 06:41:24;;;;;;;24.70;3.10;;;;;;;-146.27;75.17;32158.63;5067053;28;20025;-72
2023/12/28 06:43:49;;;;;;;14.88;2.38;;;;;;;-146.27;77.19;32366.91;5060878;28;20063;-72
2023/12/28 06:46:15;;;;;;;19.52;2.75;;;;;;;-146.27;76.25;32255.81;5066214;28;20037;-73
2023/12/28 06:48:40;;;;;;;23.65;2.30;;;;;;;-146.27;76.37;32295.47;5065843;28;20036;-72
2023/12/28 06:51:06;;;;;;;24.27;3.00;;;;;;;-146.27;75.97;32239.94;5059045;28;20471;-72
2023/12/28 06:53:32;;;;;;;22.67;2.30;;;;;;;-146.27;75.80;32196.31;5061582;28;20389;-72
2023/12/28 06:55:58;;;;;;;20.35;2.35;;;;;;;-146.27;76.31;32265.72;5061714;28;20090;-71
2023/12/28 06:58:23;;;;;;;16.50;3.97;;;;;;;-146.27;76.33;32339.13;5068023;28;20040;-71
2023/12/28 07:00:48;;;;;;;23.17;2.50;;;;;;;-146.27;76.36;32287.53;5066984;28;20330;-72
2023/12/28 07:03:14;;;;;;;25.17;3.25;;;;;;;-146.27;76.41;32261.75;5063931;28;20495;-73
2023/12/28 07:05:39;;;;;;;22.58;3.20;;;;;;;-146.27;76.19;32299.44;5068738;28;20775;-72
2023/12/28 07:08:05;;;;;;;32.75;4.15;;;;;;;-146.27;76.71;32386.72;5065952;28;20023;-72
2023/12/28 07:10:30;;;;;;;16.60;3.42;;;;;;;-146.27;77.06;32360.94;5069657;28;20740;-71
2023/12/28 07:12:55;;;;;;;20.20;2.67;;;;;;;-146.27;77.55;32436.31;5056310;28;20069;-71
2023/12/28 07:15:21;;;;;;;21.00;3.40;;;;;;;-146.27;77.45;32434.34;5065624;28;20059;-70
2023/12/28 07:17:46;;;;;;;21.90;3.20;;;;;;;-146.27;78.23;32466.06;5075464;28;20179;-71
2023/12/28 07:20:14;;;;;;;17.30;2.58;;;;;;;-146.27;77.44;32406.56;5076729;28;20059;-71
2023/12/28 07:22:40;;;;;;;22.92;4.10;;;;;;;-146.27;77.15;32347.06;5077862;28;20028;-71
2023/12/28 07:25:06;;;;;;;17.50;2.67;;;;;;;-146.27;77.73;32448.22;5067732;28;20032;-72
2023/12/28 07:27:32;;;;;;;33.53;3.88;;;;;;;-146.27;78.07;32481.94;5076290;28;20500;-72
2023/12/28 07:29:58;;;;;;;19.50;2.17;;;;;;;-146.27;77.45;32426.41;5069717;28;20028;-71
2023/12/28 07:32:25;;;;;;;20.23;2.60;;;;;;;-146.27;77.81;32416.47;5059027;28;20103;-72
2023/12/28 07:34:53;;;;;;;20.05;3.00;;;;;;;-146.27;76.27;32261.75;5056437;28;20032;-72
2023/12/28 07:37:19;;;;;;;25.90;2.72;;;;;;;-146.27;76.00;32251.84;5068263;28;20076;-72
2023/12/28 07:39:44;;;;;;;19.02;3.63;;;;;;;-146.27;76.22;32315.31;5074498;28;20472;-72
2023/12/28 07:42:10;;;;;;;26.20;3.72;;;;;;;-146.27;76.39;32279.63;5069979;28;20108;-71
2023/12/28 07:44:35;;;;;;;16.83;2.83;;;;;;;-146.27;77.26;32402.59;5076986;28;20025;-71
2023/12/28 07:47:01;;;;;;;23.90;3.60;;;;;;;-146.27;76.96;32319.28;5068886;28;20283;-71
2023/12/28 07:49:27;;;;;;;9.00;1.98;;;;;;;-146.27;77.60;32476.00;5068397;28;20036;-70
2023/12/28 07:51:52;;;;;;;25.95;2.88;;;;;;;-146.27;76.30;32251.84;5071920;28;20025;-72
2023/12/28 07:54:17;;;;;;;20.67;2.40;;;;;;;-146.27;77.08;32374.81;5070133;28;20055;-73
2023/12/28 07:56:43;;;;;;;20.35;2.75;;;;;;;-146.27;76.70;32382.75;5068099;28;20048;-72
2023/12/28 07:59:09;;;;;;;15.32;2.80;;;;;;;-146.27;76.27;32293.50;5078623;28;20396;-72
2023/12/28 08:01:35;;;;;;;22.45;2.47;;;;;;;-146.27;77.69;32481.94;5082376;28;20070;-71
2023/12/28 08:04:01;;;;;;;16.63;2.63;;;;;;;-146.27;77.04;32378.78;5075375;28;20035;-72
2023/12/28 08:06:27;;;;;;;14.73;3.15;;;;;;;-146.27;77.82;32355.00;5078901;28;20343;-71
2023/12/28 08:08:53;;;;;;;19.67;3.08;;;;;;;-146.27;77.10;32327.22;5067450;28;20086;-72
2023/12/28 08:11:19;;;;;;;19.80;2.58;;;;;;;-146.27;76.56;32303.41;5074865;28;20112;-72
2023/12/28 08:13:44;;;;;;;21.55;2.53;;;;;;;-146.27;77.10;32358.97;5074639;28;20075;-72
2023/12/28 08:16:10;;;;;;;22.40;2.72;;;;;;;-146.27;76.82;32232.00;5068564;28;20082;-72
2023/12/28 08:18:35;;;;;;;23.48;3.00;;;;;;;-146.27;76.92;32321.28;5067124;28;20082;-72
2023/12/28 08:21:00;;;;;;;25.27;4.55;;;;;;;-146.27;77.56;32370.84;5068930;28;20055;-72
2023/12/28 08:23:26;;;;;;;18.70;2.75;;;;;;;-146.27;76.03;32259.78;5079045;28;20115;-72
2023/12/28 08:25:51;;;;;;;21.75;3.92;;;;;;;-146.27;75.87;32206.22;5079193;28;20065;-72
2023/12/28 08:28:17;;;;;;;14.20;2.28;;;;;;;-146.27;76.99;32362.94;5060254;28;20028;-72
2023/12/28 08:30:42;;;;;;;22.38;2.63;;;;;;;-146.27;77.72;32396.66;5058932;28;20464;-72
2023/12/28 08:33:08;;;;;;;14.35;2.38;;;;;;;-146.27;77.23;32315.31;5059642;28;20032;-73
2023/12/28 08:35:33;;;;;;;19.58;2.60;;;;;;;-146.27;76.11;32269.69;5079693;28;20117;-73
2023/12/28 08:37:59;;;;;;;26.65;2.55;;;;;;;-146.27;77.93;32470.03;5068102;28;20035;-72
2023/12/28 08:40:24;;;;;;;17.73;2.05;;;;;;;-146.27;77.57;32382.75;5069932;28;20419;-72
2023/12/28 08:42:49;;;;;;;17.75;3.00;;;;;;;-146.27;77.09;32289.53;5069149;28;20036;-72
2023/12/28 08:45:15;;;;;;;21.08;2.63;;;;;;;-146.27;77.37;32315.31;5066376;28;20029;-73
2023/12/28 08:47:40;;;;;;;18.23;2.65;;;;;;;-146.27;78.49;32299.44;5068570;28;20067;-72
2023/12/28 08:50:06;;;;;;;17.08;2.65;;;;;;;-146.27;78.79;32420.44;5072753;28;20040;-72
2023/12/28 08:52:31;;;;;;;23.27;3.85;;;;;;;-146.27;78.13;32400.63;5070884;28;20043;-71
2023/12/28 08:54:56;;;;;;;14.23;2.30;;;;;;;-146.27;79.42;32454.16;5073504;28;20036;-71
2023/12/28 08:57:21;;;;;;;22.48;2.60;;;;;;;-146.27;80.19;32422.44;5065448;28;20488;-71
2023/12/28 08:59:47;;;;;;;24.92;3.58;;;;;;;-146.27;80.58;32376.81;5071871;28;20039;-71
2023/12/28 09:02:12;;;;;;;22.77;2.60;;;;;;;-146.27;81.08;32430.38;5065185;28;20028;-71
2023/12/28 09:04:38;;;;;;;12.25;2.38;;;;;;;-146.27;80.36;32434.34;5079922;28;20475;-72
2023/12/28 09:07:04;;;;;;;23.33;4.00;;;;;;;-146.27;80.25;32472.03;5053071;28;20428;-72
2023/12/28 09:09:30;;;;;;;17.38;2.30;;;;;;;-146.27;79.45;32414.50;5058220;28;20523;-73
2023/12/28 09:11:55;;;;;;;21.63;2.20;;;;;;;-146.27;77.99;32269.69;5067169;28;20020;-71
2023/12/28 09:14:21;;;;;;;20.23;2.90;;;;;;;-146.27;77.81;32228.03;5071225;28;20362;-73
2023/12/28 09:16:47;;;;;;;18.38;2.63;;;;;;;-146.27;77.59;32319.28;5067787;28;20107;-73
2023/12/28 09:19:13;;;;;;;20.35;2.50;;;;;;;-146.27;77.90;32331.19;5069350;28;20032;-72
2023/12/28 09:21:38;;;;;;;17.00;2.42;;;;;;;-146.27;77.37;32251.84;5077294;28;20334;-72
2023/12/28 09:24:03;;;;;;;13.07;2.47;;;;;;;-146.27;76.99;32230.03;5069866;28;20016;-72
2023/12/28 09:26:29;;;;;;;18.85;2.58;;;;;;;-146.27;77.23;32239.94;5068088;28;20526;-72
2023/12/28 09:28:55;;;;;;;26.15;2.35;;;;;;;-146.27;78.66;32333.16;5069814;28;20102;-72
2023/12/28 09:31:20;;;;;;;17.75;3.97;;;;;;;-146.27;78.90;32392.69;5070887;28;20021;-72
2023/12/28 09:33:45;;;;;;;14.20;2.53;;;;;;;-146.27;78.43;32273.66;5071233;28;20486;-73
2023/12/28 09:36:12;;;;;;;27.75;3.45;;;;;;;-146.27;78.28;32297.47;5060168;28;20607;-72
2023/12/28 09:38:38;;;;;;;12.88;2.67;;;;;;;-146.27;79.40;32293.50;5060269;28;20034;-73
2023/12/28 09:41:14;;;;;;;20.80;3.50;;;;;;;-146.27;82.06;32446.25;5065877;28;20459;-72
2023/12/28 09:43:53;;;;;;;15.82;3.53;;;;;;;-146.27;81.43;32355.00;5069883;28;20036;-72
2023/12/28 09:46:18;;;;;;;17.58;2.80;;;;;;;-146.27;81.30;32347.06;5062762;28;20056;-72
2023/12/28 09:48:44;;;;;;;33.30;3.47;;;;;;;-146.27;82.89;32410.53;5076477;28;20103;-72
2023/12/28 09:51:10;;;;;;;15.52;2.15;;;;;;;-146.27;83.06;32485.91;5071502;28;21493;-72
2023/12/28 09:53:36;;;;;;;13.05;1.90;;;;;;;-146.27;83.26;32442.28;5070604;28;20037;-72
2023/12/28 09:56:02;;;;;;;17.85;3.10;;;;;;;-146.27;84.24;32410.53;5065826;28;20519;-72
2023/12/28 09:58:29;;;;;;;24.48;3.00;;;;;;;-146.27;83.58;32483.94;5069423;28;20020;-72
2023/12/28 10:00:56;;;;;;;17.50;2.10;;;;;;;-146.27;83.42;32485.91;5070815;28;20040;-72
2023/12/28 10:03:21;;;;;;;20.45;3.13;;;;;;;-146.27;82.83;32430.38;5070491;28;20024;-72
2023/12/28 10:05:47;;;;;;;19.00;2.47;;;;;;;-146.27;82.33;32466.06;5068876;28;20043;-72
2023/12/28 10:08:14;;;;;;;24.23;3.35;;;;;;;-146.27;81.05;32327.22;5063659;28;20120;-72
2023/12/28 10:10:42;;;;;;;18.38;3.20;;;;;;;-146.27;80.45;32305.41;5069031;28;20400;-72
2023/12/28 10:13:08;;;;;;;20.50;3.10;;;;;;;-146.27;79.21;32255.81;5069360;28;20056;-72
2023/12/28 10:15:35;;;;;;;19.45;3.30;;;;;;;-146.27;78.96;32303.41;5053798;28;20039;-72
2023/12/28 10:18:00;;;;;;;21.90;2.97;;;;;;;-146.27;78.11;32255.81;5061074;28;20112;-73
2023/12/28 10:20:27;;;;;;;22.67;3.92;;;;;;;-146.27;77.45;32204.25;5077709;28;20119;-72
2023/12/28 10:22:52;;;;;;;19.25;2.58;;;;;;;-146.27;75.90;32013.81;5061636;28;20028;-72
2023/12/28 10:25:18;;;;;;;26.13;4.18;;;;;;;-146.27;75.29;32097.13;5059452;28;20122;-72
2023/12/28 10:27:43;;;;;;;20.55;2.40;;;;;;;-146.27;76.38;32120.94;5064388;28;20373;-73
2023/12/28 10:30:10;;;;;;;16.02;2.75;;;;;;;-146.27;76.14;32111.00;5069270;28;20032;-72
2023/12/28 10:32:35;;;;;;;24.45;2.65;;;;;;;-146.27;75.49;32075.31;5060168;28;20494;-72
2023/12/28 10:35:01;;;;;;;31.33;3.78;;;;;;;-146.27;75.62;32065.38;5059126;28;20024;-72
2023/12/28 10:37:26;;;;;;;28.90;3.22;;;;;;;-146.27;75.11;32037.63;5066846;28;20032;-72
2023/12/28 10:39:54;;;;;;;21.85;3.28;;;;;;;-146.27;74.41;32053.50;5060439;28;20036;-71
2023/12/28 10:42:31;;;;;;;18.88;3.55;;;;;;;-146.27;74.56;32033.66;5062135;28;20055;-72
2023/12/28 10:45:05;;;;;;;31.38;3.35;;;;;;;-146.27;74.47;31978.13;5065670;28;20025;-72
2023/12/28 10:47:35;;;;;;;21.58;4.03;;;;;;;-146.27;74.12;32003.91;5062829;28;20230;-73
2023/12/28 10:50:05;;;;;;;17.00;2.90;;;;;;;-146.27;74.60;32079.28;5060460;28;20070;-73
2023/12/28 10:52:31;;;;;;;20.25;2.67;;;;;;;-146.27;74.64;32132.84;5061950;28;20047;-73
2023/12/28 10:55:18;;;;;;;16.52;3.35;;;;;;;-146.27;74.25;31910.69;5059238;28;20404;-73
2023/12/28 10:58:02;;;;;;;18.60;2.20;;;;;;;-146.27;74.17;32069.34;5064429;28;20020;-72
2023/12/28 11:00:33;;;;;;;21.92;3.08;;;;;;;-146.27;74.09;32029.69;5063952;28;20028;-72
2023/12/28 11:03:03;;;;;;;15.90;3.30;;;;;;;-146.27;74.37;32053.50;5064952;28;20028;-72
2023/12/28 11:05:29;;;;;;;24.15;3.28;;;;;;;-146.27;74.15;32007.88;5072080;28;20039;-71
2023/12/28 11:07:58;;;;;;;20.58;3.33;;;;;;;-146.27;73.86;32069.34;5067758;28;20129;-72